Time;durP1;ratioP1;P1;durP2;ratioP2;P2;SDS_P1;SDS_P2;PMS_P1;PMS_P2;Temp;Humidity;BMP_temperature;BMP_pressure;BME280_temperature;BME280_humidity;BME280_pressure;Samples;Min_cycle;Max_cycle;Signal;HPM_P1;HPM_P2
2023/07/23 00:00:31;;;;;;;4.32;3.75;;;15.10;99.90;;;;;;4976455;28;20632;-84
2023/07/23 00:02:57;;;;;;;7.28;4.63;;;15.10;99.90;;;;;;4958121;28;20190;-85
2023/07/23 00:05:23;;;;;;;7.00;3.97;;;15.00;99.90;;;;;;4973933;28;20178;-85
2023/07/23 00:07:59;;;;;;;6.88;4.38;;;15.00;99.90;;;;;;4973771;28;20261;-84
2023/07/23 00:10:25;;;;;;;5.32;4.18;;;14.80;99.90;;;;;;4976344;28;20209;-84
2023/07/23 00:12:52;;;;;;;5.47;3.90;;;15.00;99.90;;;;;;4976345;28;20210;-84
2023/07/23 00:15:18;;;;;;;5.78;4.07;;;14.90;99.90;;;;;;4975118;28;20587;-84
2023/07/23 00:17:44;;;;;;;6.00;4.03;;;14.90;99.90;;;;;;4976521;28;20225;-85
2023/07/23 00:20:11;;;;;;;6.70;3.53;;;14.90;99.90;;;;;;4958522;28;20179;-85
2023/07/23 00:22:38;;;;;;;6.78;4.55;;;14.90;99.90;;;;;;4959598;28;20194;-85
2023/07/23 00:25:05;;;;;;;9.05;4.00;;;14.90;99.90;;;;;;4974652;28;20183;-84
2023/07/23 00:27:31;;;;;;;5.80;3.88;;;14.90;99.90;;;;;;4977101;28;20244;-85
2023/07/23 00:29:57;;;;;;;6.43;3.97;;;14.80;99.90;;;;;;4942028;28;20193;-84
2023/07/23 00:32:23;;;;;;;6.95;3.65;;;14.80;99.90;;;;;;4974504;28;20232;-85
2023/07/23 00:34:48;;;;;;;6.38;4.05;;;14.80;99.90;;;;;;4974530;28;20643;-85
2023/07/23 00:37:15;;;;;;;5.88;4.38;;;14.80;99.90;;;;;;4957230;28;20186;-85
2023/07/23 00:39:41;;;;;;;6.45;4.10;;;14.80;99.90;;;;;;4973332;28;20197;-85
2023/07/23 00:42:07;;;;;;;5.80;4.15;;;14.70;99.90;;;;;;4974448;28;20179;-85
2023/07/23 00:44:33;;;;;;;5.05;3.65;;;14.70;99.90;;;;;;4973699;28;20235;-85
2023/07/23 00:47:00;;;;;;;6.32;4.05;;;14.70;99.90;;;;;;4942147;28;20245;-85
2023/07/23 00:49:26;;;;;;;5.63;3.85;;;14.70;99.90;;;;;;4975613;28;20237;-85
2023/07/23 00:51:53;;;;;;;5.88;4.07;;;14.70;99.90;;;;;;4958599;28;20183;-85
2023/07/23 00:54:19;;;;;;;6.60;3.80;;;14.60;99.90;;;;;;4976350;28;20198;-85
2023/07/23 00:56:46;;;;;;;6.20;3.95;;;14.60;99.90;;;;;;4975509;28;20191;-85
2023/07/23 00:59:12;;;;;;;4.63;3.47;;;14.60;99.90;;;;;;4975249;28;20186;-87
2023/07/23 01:01:38;;;;;;;5.05;3.70;;;14.60;99.90;;;;;;4976474;28;20257;-87
2023/07/23 01:04:04;;;;;;;4.30;3.60;;;14.60;99.90;;;;;;4975405;28;20214;-85
2023/07/23 01:06:33;;;;;;;5.40;4.07;;;14.60;99.90;;;;;;4972948;28;20635;-86
2023/07/23 01:09:00;;;;;;;5.30;4.32;;;14.60;99.90;;;;;;4972276;28;20300;-85
2023/07/23 01:11:27;;;;;;;6.75;4.20;;;14.50;99.90;;;;;;4972831;28;20217;-85
2023/07/23 01:13:55;;;;;;;5.78;3.85;;;14.50;99.90;;;;;;4972776;28;20229;-85
2023/07/23 01:16:23;;;;;;;5.57;4.30;;;14.40;99.90;;;;;;4972340;28;20240;-85
2023/07/23 01:18:48;;;;;;;4.22;3.65;;;14.40;99.90;;;;;;4973958;28;20171;-85
2023/07/23 01:21:16;;;;;;;5.72;3.60;;;14.40;99.90;;;;;;4970394;28;20546;-85
2023/07/23 01:23:43;;;;;;;6.15;3.92;;;14.30;99.90;;;;;;4964931;28;20202;-85
2023/07/23 01:26:09;;;;;;;5.93;3.90;;;14.30;99.90;;;;;;4977973;28;20210;-85
2023/07/23 01:28:34;;;;;;;6.38;4.38;;;14.20;99.90;;;;;;4944417;28;20258;-85
2023/07/23 01:31:00;;;;;;;7.43;4.88;;;14.30;99.90;;;;;;4976230;28;20529;-85
2023/07/23 01:33:26;;;;;;;8.45;4.35;;;14.20;99.90;;;;;;4965572;28;20286;-84
2023/07/23 01:35:56;;;;;;;6.00;4.32;;;14.20;99.90;;;;;;4946383;28;20202;-84
2023/07/23 01:38:22;;;;;;;5.18;4.00;;;14.10;99.90;;;;;;4976360;28;20191;-84
2023/07/23 01:40:48;;;;;;;5.43;3.85;;;14.10;99.90;;;;;;4976478;28;20253;-84
2023/07/23 01:43:15;;;;;;;5.72;4.30;;;14.10;99.90;;;;;;4989807;28;20201;-85
2023/07/23 01:45:44;;;;;;;10.57;4.28;;;14.00;99.90;;;;;;4962983;28;20277;-85
2023/07/23 01:48:11;;;;;;;8.73;4.65;;;14.00;99.90;;;;;;4959165;28;20182;-85
2023/07/23 01:50:38;;;;;;;6.90;4.85;;;14.00;99.90;;;;;;4959550;28;20193;-85
2023/07/23 01:53:03;;;;;;;6.22;4.05;;;14.00;99.90;;;;;;4975887;28;20313;-85
2023/07/23 01:55:29;;;;;;;6.53;4.20;;;13.90;99.90;;;;;;4959796;28;20209;-85
2023/07/23 01:57:54;;;;;;;9.82;4.30;;;13.90;99.90;;;;;;4977336;28;20567;-84
2023/07/23 02:00:20;;;;;;;6.28;3.90;;;13.80;99.90;;;;;;4976827;28;20680;-84
2023/07/23 02:02:46;;;;;;;5.90;4.05;;;13.60;99.90;;;;;;4959891;28;20610;-84
2023/07/23 02:05:17;;;;;;;5.95;4.13;;;13.60;99.90;;;;;;4975748;28;20179;-85
2023/07/23 02:07:43;;;;;;;6.40;4.28;;;13.60;99.90;;;;;;4974392;28;20233;-85
2023/07/23 02:10:13;;;;;;;6.75;4.32;;;13.60;99.90;;;;;;4970919;28;20192;-85
2023/07/23 02:12:39;;;;;;;6.65;4.47;;;13.60;99.90;;;;;;4957382;29;20597;-85
2023/07/23 02:15:05;;;;;;;6.57;4.70;;;13.50;99.90;;;;;;4940648;29;20262;-85
2023/07/23 02:17:31;;;;;;;5.03;4.38;;;13.50;99.90;;;;;;4940686;29;20686;-85
2023/07/23 02:19:57;;;;;;;6.57;4.88;;;13.50;99.90;;;;;;4940575;29;20183;-85
2023/07/23 02:22:23;;;;;;;7.82;4.43;;;13.40;99.90;;;;;;4957534;29;20190;-85
2023/07/23 02:24:48;;;;;;;5.88;4.32;;;13.30;99.90;;;;;;4924497;29;20177;-85
2023/07/23 02:27:15;;;;;;;5.35;3.83;;;13.20;99.90;;;;;;4940559;29;20187;-85
2023/07/23 02:29:40;;;;;;;5.97;3.75;;;13.20;99.90;;;;;;4957350;29;20182;-85
2023/07/23 02:32:10;;;;;;;7.22;4.60;;;13.10;99.90;;;;;;4940868;29;20192;-85
2023/07/23 02:34:36;;;;;;;10.38;4.55;;;13.00;99.90;;;;;;4939724;29;20203;-85
2023/07/23 02:37:02;;;;;;;6.28;4.32;;;12.90;99.90;;;;;;4980561;28;20182;-84
2023/07/23 02:39:28;;;;;;;6.65;3.95;;;13.00;99.90;;;;;;4963818;28;20183;-85
2023/07/23 02:41:53;;;;;;;8.63;4.97;;;12.90;99.90;;;;;;4972641;28;20198;-84
2023/07/23 02:44:19;;;;;;;6.68;5.00;;;12.90;99.90;;;;;;4976303;28;20187;-84
2023/07/23 02:46:45;;;;;;;6.88;4.57;;;13.00;99.90;;;;;;4974718;28;20545;-84
2023/07/23 02:49:10;;;;;;;7.35;4.63;;;13.00;99.90;;;;;;4974764;28;20273;-84
2023/07/23 02:51:36;;;;;;;4.80;4.22;;;13.00;99.90;;;;;;4968440;28;20192;-84
2023/07/23 02:54:03;;;;;;;10.05;4.38;;;13.00;99.90;;;;;;4966719;28;20223;-84
2023/07/23 02:56:29;;;;;;;6.97;4.57;;;13.00;99.90;;;;;;4948015;28;20179;-84
2023/07/23 02:58:54;;;;;;;6.35;4.47;;;12.90;99.90;;;;;;4964992;28;20523;-85
2023/07/23 03:01:20;;;;;;;6.97;5.00;;;13.00;99.90;;;;;;4951033;28;20651;-83
2023/07/23 03:03:47;;;;;;;6.05;4.75;;;13.00;99.90;;;;;;4949718;28;20258;-86
2023/07/23 03:06:14;;;;;;;6.47;5.05;;;13.00;99.90;;;;;;4970352;28;20214;-85
2023/07/23 03:08:39;;;;;;;6.90;4.57;;;13.00;99.90;;;;;;4974248;28;20237;-85
2023/07/23 03:11:06;;;;;;;6.45;4.50;;;13.00;99.90;;;;;;4975864;28;20195;-84
2023/07/23 03:13:31;;;;;;;5.10;4.43;;;13.00;99.90;;;;;;4969373;28;20557;-82
2023/07/23 03:15:57;;;;;;;6.78;4.88;;;13.00;99.90;;;;;;4942281;28;20217;-84
2023/07/23 03:18:23;;;;;;;5.68;4.45;;;13.00;99.90;;;;;;4961900;28;20656;-85
2023/07/23 03:20:49;;;;;;;6.05;4.15;;;13.00;99.90;;;;;;4961868;28;20657;-84
2023/07/23 03:23:15;;;;;;;7.55;5.60;;;13.00;99.90;;;;;;4966874;28;20191;-84
2023/07/23 03:25:40;;;;;;;6.68;5.10;;;13.00;99.90;;;;;;4973709;28;20179;-83
2023/07/23 03:28:06;;;;;;;4.88;3.95;;;13.00;99.90;;;;;;4973043;28;20587;-82
2023/07/23 03:30:32;;;;;;;5.72;4.35;;;13.10;99.90;;;;;;4974411;28;20648;-83
2023/07/23 03:32:57;;;;;;;5.90;4.90;;;13.10;99.90;;;;;;4975436;28;20653;-83
2023/07/23 03:35:23;;;;;;;6.05;4.68;;;13.10;99.90;;;;;;4968539;28;20271;-82
2023/07/23 03:37:49;;;;;;;5.95;4.55;;;13.10;99.90;;;;;;4969299;28;20182;-84
2023/07/23 03:40:15;;;;;;;6.82;5.05;;;13.20;99.90;;;;;;4966530;28;20202;-83
2023/07/23 03:42:41;;;;;;;7.25;5.20;;;13.20;99.90;;;;;;4938782;29;20640;-82
2023/07/23 03:45:07;;;;;;;10.52;5.50;;;13.30;99.90;;;;;;4938711;28;20255;-84
2023/07/23 03:47:32;;;;;;;8.65;5.13;;;13.30;99.90;;;;;;4968348;28;20194;-84
2023/07/23 03:49:59;;;;;;;7.93;5.05;;;13.40;99.90;;;;;;4958229;28;20540;-86
2023/07/23 03:52:25;;;;;;;6.43;4.88;;;13.40;99.90;;;;;;4975187;28;20606;-86
2023/07/23 03:54:50;;;;;;;7.00;4.75;;;13.50;99.90;;;;;;4975174;28;20300;-86
2023/07/23 03:57:16;;;;;;;6.75;4.50;;;13.50;99.90;;;;;;4975044;28;20193;-85
2023/07/23 03:59:44;;;;;;;10.35;5.63;;;13.60;99.90;;;;;;4957555;28;20210;-86
2023/07/23 04:02:10;;;;;;;7.68;4.80;;;13.70;99.90;;;;;;4958195;28;20187;-85
2023/07/23 04:04:37;;;;;;;6.47;4.63;;;13.80;99.90;;;;;;4958902;28;20190;-85
2023/07/23 04:07:04;;;;;;;7.07;4.90;;;13.90;99.90;;;;;;4959488;28;20193;-84
2023/07/23 04:09:30;;;;;;;6.15;4.75;;;13.90;99.90;;;;;;4957521;28;20234;-86
2023/07/23 04:11:57;;;;;;;6.65;4.47;;;14.00;99.90;;;;;;4970365;28;20697;-86
2023/07/23 04:14:23;;;;;;;5.15;4.18;;;14.10;99.90;;;;;;4973292;28;20207;-86
2023/07/23 04:16:49;;;;;;;6.45;4.78;;;14.20;99.90;;;;;;4974319;28;20175;-86
2023/07/23 04:19:15;;;;;;;9.20;4.60;;;14.30;99.90;;;;;;4961204;28;20512;-86
2023/07/23 04:21:40;;;;;;;5.97;3.65;;;14.40;99.90;;;;;;4959297;28;20244;-86
2023/07/23 04:24:06;;;;;;;9.15;4.00;;;14.30;99.90;;;;;;4958843;28;20637;-86
2023/07/23 04:26:32;;;;;;;5.30;3.95;;;14.40;99.90;;;;;;4964478;28;20190;-86
2023/07/23 04:28:58;;;;;;;6.40;4.50;;;14.40;99.90;;;;;;4957163;28;20555;-86
2023/07/23 04:31:24;;;;;;;9.52;3.95;;;14.60;99.90;;;;;;4961175;28;20211;-86
2023/07/23 04:33:50;;;;;;;6.57;4.50;;;14.80;99.90;;;;;;4954204;29;20247;-85
2023/07/23 04:36:16;;;;;;;5.70;4.05;;;14.90;99.90;;;;;;4953599;29;20245;-86
2023/07/23 04:38:48;;;;;;;5.10;3.97;;;14.90;99.90;;;;;;4937493;29;20183;-86
2023/07/23 04:41:14;;;;;;;5.15;3.97;;;15.10;99.90;;;;;;4955743;29;20179;-86
2023/07/23 04:43:41;;;;;;;4.80;3.72;;;15.30;99.90;;;;;;4937653;29;20274;-86
2023/07/23 04:46:07;;;;;;;5.32;3.92;;;15.20;99.90;;;;;;4954077;29;20184;-86
2023/07/23 04:48:37;;;;;;;6.90;4.32;;;15.10;99.90;;;;;;4954148;29;20218;-86
2023/07/23 04:51:07;;;;;;;5.55;3.65;;;15.20;99.90;;;;;;4955293;29;20183;-86
2023/07/23 04:53:33;;;;;;;8.52;4.07;;;15.20;99.90;;;;;;4937755;29;20265;-86
2023/07/23 04:56:01;;;;;;;5.72;3.85;;;15.30;99.90;;;;;;4953622;29;20636;-86
2023/07/23 04:58:27;;;;;;;7.18;3.90;;;15.40;99.90;;;;;;4958392;28;20183;-86
2023/07/23 05:00:53;;;;;;;4.95;3.22;;;15.50;99.90;;;;;;4960330;29;20600;-86
2023/07/23 05:03:19;;;;;;;3.80;3.28;;;15.60;99.90;;;;;;4962257;29;20183;-86
2023/07/23 05:05:48;;;;;;;6.82;4.38;;;15.70;99.90;;;;;;4961317;29;20225;-87
2023/07/23 05:08:14;;;;;;;3.63;3.25;;;15.70;99.90;;;;;;4961418;28;20175;-85
2023/07/23 05:10:40;;;;;;;4.60;3.50;;;15.80;99.90;;;;;;4943994;29;20241;-87
2023/07/23 05:13:06;;;;;;;7.40;3.67;;;16.00;99.90;;;;;;4944130;29;20218;-84
2023/07/23 05:15:31;;;;;;;6.32;3.05;;;16.00;99.90;;;;;;4960433;29;20711;-86
2023/07/23 05:17:57;;;;;;;5.30;3.30;;;16.10;99.90;;;;;;4961065;29;20536;-85
2023/07/23 05:20:23;;;;;;;4.65;3.60;;;16.30;99.90;;;;;;4974896;29;20274;-86
2023/07/23 05:22:49;;;;;;;7.18;3.50;;;16.40;99.90;;;;;;4984221;28;20179;-86
2023/07/23 05:25:15;;;;;;;4.88;3.15;;;16.50;99.90;;;;;;4981578;28;20270;-85
2023/07/23 05:27:40;;;;;;;6.68;3.53;;;16.60;99.90;;;;;;4976170;29;20207;-87
2023/07/23 05:30:06;;;;;;;4.30;3.20;;;16.60;99.90;;;;;;4965225;28;20728;-87
2023/07/23 05:32:32;;;;;;;9.30;3.70;;;16.70;99.90;;;;;;4962787;29;20664;-86
2023/07/23 05:34:58;;;;;;;4.43;2.90;;;16.90;99.90;;;;;;4960250;29;20186;-85
2023/07/23 05:37:24;;;;;;;7.43;3.38;;;17.00;99.90;;;;;;4960273;28;20314;-85
2023/07/23 05:39:53;;;;;;;5.97;3.28;;;17.10;99.90;;;;;;4961182;29;20179;-85
2023/07/23 05:42:19;;;;;;;4.10;3.30;;;17.20;99.90;;;;;;4944252;29;20226;-85
2023/07/23 05:44:45;;;;;;;4.57;3.17;;;17.30;99.90;;;;;;4960952;29;20182;-85
2023/07/23 05:47:11;;;;;;;4.47;3.10;;;17.40;99.90;;;;;;4959173;28;20588;-85
2023/07/23 05:49:36;;;;;;;3.97;2.67;;;17.50;99.90;;;;;;4960062;28;20219;-84
2023/07/23 05:52:02;;;;;;;2.80;2.25;;;17.60;99.90;;;;;;4944002;29;20179;-85
2023/07/23 05:54:28;;;;;;;4.32;2.92;;;17.70;99.90;;;;;;4960895;28;20219;-85
2023/07/23 05:56:53;;;;;;;3.38;2.50;;;17.90;99.90;;;;;;4959415;29;20187;-85
2023/07/23 05:59:19;;;;;;;3.50;2.58;;;18.00;99.90;;;;;;4961083;29;20198;-86
2023/07/23 06:01:45;;;;;;;5.78;2.80;;;18.10;99.90;;;;;;4960108;28;20187;-86
2023/07/23 06:04:16;;;;;;;3.50;2.47;;;18.10;99.90;;;;;;4946274;29;20187;-84
2023/07/23 06:06:42;;;;;;;3.50;2.08;;;18.10;99.90;;;;;;4961315;28;20197;-85
2023/07/23 06:09:08;;;;;;;3.00;2.35;;;18.20;99.90;;;;;;4957248;28;20183;-85
2023/07/23 06:11:34;;;;;;;2.88;2.22;;;18.30;99.90;;;;;;4958185;29;20323;-85
2023/07/23 06:14:00;;;;;;;2.88;2.15;;;18.40;99.90;;;;;;4956934;29;20230;-85
2023/07/23 06:16:26;;;;;;;5.30;2.65;;;18.60;99.90;;;;;;4976565;28;20215;-85
2023/07/23 06:18:51;;;;;;;3.45;2.67;;;18.70;99.90;;;;;;4981712;28;20175;-88
2023/07/23 06:21:17;;;;;;;3.13;2.22;;;18.80;99.90;;;;;;4960813;29;20187;-85
2023/07/23 06:23:43;;;;;;;7.40;2.78;;;19.00;99.90;;;;;;4957928;29;20649;-85
2023/07/23 06:26:08;;;;;;;4.70;2.63;;;19.10;99.90;;;;;;4956474;29;20197;-85
2023/07/23 06:28:34;;;;;;;2.92;2.30;;;19.20;99.90;;;;;;4957000;29;20635;-85
2023/07/23 06:31:00;;;;;;;3.58;2.50;;;19.30;99.90;;;;;;4956486;29;20552;-85
2023/07/23 06:33:27;;;;;;;2.10;1.90;;;19.30;99.90;;;;;;4960723;28;20207;-85
2023/07/23 06:35:53;;;;;;;7.35;2.00;;;19.40;99.90;;;;;;4978588;28;20183;-85
2023/07/23 06:38:19;;;;;;;3.35;2.50;;;19.60;99.90;;;;;;4955796;29;20207;-86
2023/07/23 06:40:50;;;;;;;3.67;2.10;;;19.70;99.90;;;;;;4958354;29;20198;-85
2023/07/23 06:43:19;;;;;;;3.50;2.45;;;19.70;99.40;;;;;;4956668;29;20182;-85
2023/07/23 06:45:46;;;;;;;3.42;2.38;;;20.00;99.80;;;;;;4956427;29;20285;-90
2023/07/23 06:48:13;;;;;;;2.83;2.30;;;19.90;98.90;;;;;;4958377;29;20183;-86
2023/07/23 06:50:39;;;;;;;6.35;2.47;;;19.90;98.00;;;;;;4942007;29;20183;-87
2023/07/23 06:53:05;;;;;;;4.45;2.97;;;20.10;98.60;;;;;;4940390;29;20580;-87
2023/07/23 06:55:31;;;;;;;3.13;1.88;;;20.20;97.90;;;;;;4957518;29;20179;-87
2023/07/23 06:57:57;;;;;;;4.65;1.90;;;20.30;97.00;;;;;;4957248;29;20636;-89
2023/07/23 07:00:23;;;;;;;2.47;2.03;;;20.30;95.70;;;;;;4956187;29;20278;-90
2023/07/23 07:02:48;;;;;;;4.88;2.10;;;20.40;97.30;;;;;;4956357;29;20541;-88
2023/07/23 07:05:14;;;;;;;2.83;2.53;;;20.60;97.10;;;;;;4954076;28;20191;-87
2023/07/23 07:07:40;;;;;;;2.88;2.22;;;20.70;95.10;;;;;;4954308;28;20697;-86
2023/07/23 07:10:06;;;;;;;3.65;1.88;;;20.80;93.60;;;;;;4956851;28;20231;-85
2023/07/23 07:12:32;;;;;;;2.20;1.92;;;20.80;94.00;;;;;;4984540;28;20700;-85
2023/07/23 07:14:57;;;;;;;2.08;1.60;;;20.80;92.60;;;;;;4942798;28;20226;-88
2023/07/23 07:17:23;;;;;;;4.05;2.05;;;21.00;90.70;;;;;;4961432;28;20187;-87
2023/07/23 07:19:50;;;;;;;2.22;1.80;;;20.90;88.80;;;;;;4955713;28;20242;-90
2023/07/23 07:22:16;;;;;;;4.80;1.88;;;21.00;89.40;;;;;;4967088;28;20186;-90
2023/07/23 07:24:41;;;;;;;2.60;1.80;;;21.00;87.90;;;;;;4959098;28;20281;-91
2023/07/23 07:27:11;;;;;;;5.00;1.80;;;18.50;85.10;;;;;;4959332;28;20648;-90
2023/07/23 07:29:41;;;;;;;3.65;1.63;;;21.20;82.20;;;;;;4960169;28;20545;-90
2023/07/23 07:32:08;;;;;;;2.17;1.45;;;21.30;79.90;;;;;;4969932;28;20183;-90
2023/07/23 07:34:35;;;;;;;3.28;1.70;;;21.40;78.60;;;;;;4956279;28;20211;-92
2023/07/23 07:37:01;;;;;;;2.55;1.83;;;21.40;74.30;;;;;;4934213;28;20183;-90
2023/07/23 07:39:27;;;;;;;2.22;1.80;;;21.60;75.70;;;;;;4975295;28;20193;-92
2023/07/23 07:41:53;;;;;;;1.85;1.65;;;21.70;72.80;;;;;;4941303;29;20625;-89
2023/07/23 07:44:20;;;;;;;2.65;1.77;;;21.90;75.10;;;;;;4955083;28;20196;-89
2023/07/23 07:46:45;;;;;;;1.77;1.50;;;22.00;72.80;;;;;;4938765;28;20210;-88
2023/07/23 07:49:11;;;;;;;2.00;1.67;;;22.10;68.40;;;;;;4949932;28;20226;-90
2023/07/23 07:51:38;;;;;;;2.42;2.05;;;22.10;69.60;;;;;;4975601;28;20214;-92
2023/07/23 07:54:04;;;;;;;2.15;1.73;;;22.10;68.20;;;;;;4956659;28;20249;-92
2023/07/23 07:56:30;;;;;;;2.05;1.52;;;22.10;67.60;;;;;;4962158;28;20214;-91
2023/07/23 07:58:56;;;;;;;2.78;1.55;;;22.10;65.00;;;;;;4948010;28;20669;-89
2023/07/23 08:01:22;;;;;;;2.65;1.75;;;22.10;66.00;;;;;;4983595;28;20572;-90
2023/07/23 08:03:49;;;;;;;2.85;1.88;;;22.10;68.90;;;;;;4967391;28;20210;-92
2023/07/23 08:06:16;;;;;;;2.42;1.60;;;22.10;66.70;;;;;;4942573;28;20262;-91
2023/07/23 08:08:44;;;;;;;3.08;1.58;;;22.30;65.00;;;;;;4955093;28;20195;-88
2023/07/23 08:11:11;;;;;;;1.95;1.63;;;22.30;62.50;;;;;;4933709;29;20286;-87
2023/07/23 08:13:37;;;;;;;5.25;1.70;;;22.30;61.00;;;;;;4957041;28;20214;-92
2023/07/23 08:16:07;;;;;;;2.40;1.90;;;22.30;64.40;;;;;;4957388;28;20198;-88
2023/07/23 08:18:33;;;;;;;1.73;1.45;;;22.10;87.70;;;;;;4932688;28;20580;-86
2023/07/23 08:20:59;;;;;;;2.17;1.77;;;;;;;;;;4956082;28;20226;-86
2023/07/23 08:23:25;;;;;;;1.60;1.38;;;22.30;84.30;;;;;;4943524;28;20192;-89
2023/07/23 08:25:56;;;;;;;4.15;1.60;;;22.70;58.50;;;;;;4987531;28;20215;-88
2023/07/23 08:28:25;;;;;;;3.35;2.28;;;22.80;69.70;;;;;;4955516;28;20198;-88
2023/07/23 08:30:51;;;;;;;2.03;1.45;;;22.80;71.50;;;;;;4968205;28;20220;-88
2023/07/23 08:33:24;;;;;;;4.18;1.50;;;22.90;72.40;;;;;;4958429;28;20210;-86
2023/07/23 08:35:50;;;;;;;2.17;1.42;;;22.30;77.20;;;;;;4962341;28;20195;-88
2023/07/23 08:38:16;;;;;;;2.40;1.70;;;23.30;71.60;;;;;;4957457;28;20242;-87
2023/07/23 08:40:44;;;;;;;2.63;1.70;;;23.00;56.40;;;;;;4964141;28;20670;-88
2023/07/23 08:43:20;;;;;;;3.45;1.63;;;22.80;70.10;;;;;;4959245;28;20668;-85
2023/07/23 08:46:04;;;;;;;1.67;1.38;;;22.70;67.50;;;;;;4968907;28;20217;-90
2023/07/23 08:48:55;;;;;;;1.85;1.60;;;23.10;71.80;;;;;;4976429;28;20190;-86
2023/07/23 08:51:24;;;;;;;2.40;1.67;;;23.10;56.00;;;;;;4973524;28;20209;-86
2023/07/23 08:53:51;;;;;;;1.65;1.40;;;;;;;;;;4973896;28;20210;-88
2023/07/23 08:56:18;;;;;;;2.75;1.70;;;23.30;56.20;;;;;;4954229;28;20249;-87
2023/07/23 08:58:44;;;;;;;2.03;1.52;;;;;;;;;;4963126;28;20175;-85
2023/07/23 09:01:17;;;;;;;2.35;1.65;;;23.50;56.50;;;;;;4978118;28;20182;-86
2023/07/23 09:03:43;;;;;;;3.67;2.03;;;;;;;;;;4954790;28;20188;-85
2023/07/23 09:06:12;;;;;;;3.10;2.13;;;23.50;74.00;;;;;;4961285;28;20266;-87
2023/07/23 09:08:38;;;;;;;6.05;1.73;;;23.30;72.30;;;;;;4967420;28;20195;-87
2023/07/23 09:11:06;;;;;;;1.70;1.27;;;;;;;;;;4940674;28;20257;-87
2023/07/23 09:13:33;;;;;;;2.47;1.80;;;23.40;55.00;;;;;;4973959;28;20247;-90
2023/07/23 09:15:59;;;;;;;1.88;1.50;;;;;;;;;;4954241;28;20598;-90
2023/07/23 09:18:25;;;;;;;2.35;1.70;;;;;;;;;;4955705;28;20761;-90
2023/07/23 09:20:53;;;;;;;2.20;1.58;;;23.20;73.80;;;;;;4990208;28;20205;-89
2023/07/23 09:23:19;;;;;;;3.67;1.80;;;;;;;;;;4963531;28;20188;-91
2023/07/23 09:25:46;;;;;;;3.83;1.77;;;;;;;;;;4962861;28;20194;-88
2023/07/23 09:28:34;;;;;;;2.03;1.60;;;23.90;55.40;;;;;;4972203;28;20538;-89
2023/07/23 09:31:00;;;;;;;1.75;1.65;;;;;;;;;;4956996;28;20290;-89
2023/07/23 09:33:51;;;;;;;3.67;1.92;;;24.00;55.50;;;;;;4956543;28;20847;-88
2023/07/23 09:36:26;;;;;;;3.65;1.98;;;24.10;56.60;;;;;;4968741;28;20186;-88
2023/07/23 09:39:12;;;;;;;2.85;1.90;;;24.30;54.30;;;;;;4957261;28;20178;-88
2023/07/23 09:41:41;;;;;;;2.25;1.58;;;24.20;53.40;;;;;;4967246;28;20276;-90
2023/07/23 09:44:09;;;;;;;4.18;2.10;;;24.20;54.20;;;;;;4978492;28;20214;-91
2023/07/23 09:46:43;;;;;;;1.58;1.48;;;24.30;53.30;;;;;;4977461;28;20197;-88
2023/07/23 09:52:36;;;;;;;3.50;1.50;;;24.50;53.40;;;;;;4991140;28;20174;-90
2023/07/23 09:55:04;;;;;;;1.73;1.52;;;24.60;52.80;;;;;;4971189;28;20207;-89
2023/07/23 10:00:58;;;;;;;3.03;1.63;;;24.90;52.10;;;;;;4986465;28;20197;-93
2023/07/23 10:03:25;;;;;;;2.95;1.73;;;;;;;;;;4980271;28;20187;-91
2023/07/23 10:05:51;;;;;;;2.83;1.48;;;;;;;;;;4993710;28;20231;-91
2023/07/23 10:08:20;;;;;;;1.73;1.50;;;;;;;;;;4984465;28;20202;-92
2023/07/23 10:10:48;;;;;;;2.15;1.60;;;25.00;51.80;;;;;;4982120;28;20222;-92
2023/07/23 10:13:14;;;;;;;3.45;2.50;;;;;;;;;;4977706;28;20206;-91
2023/07/23 10:15:41;;;;;;;3.67;2.15;;;;;;;;;;4985546;28;20181;-91
2023/07/23 10:18:07;;;;;;;3.58;1.92;;;;;;;;;;4976609;28;20211;-93
2023/07/23 10:20:34;;;;;;;3.08;1.92;;;;;;;;;;4980727;28;20195;-89
2023/07/23 10:23:05;;;;;;;3.75;1.80;;;23.30;51.20;;;;;;4987103;28;20213;-91
2023/07/23 10:25:35;;;;;;;2.97;1.85;;;25.10;53.70;;;;;;5016012;28;20185;-90
2023/07/23 10:28:07;;;;;;;2.75;1.88;;;;;;;;;;4995856;28;20193;-88
2023/07/23 10:30:36;;;;;;;2.75;2.00;;;25.20;52.30;;;;;;4989064;28;20214;-83
2023/07/23 10:33:11;;;;;;;5.72;2.03;;;24.90;52.80;;;;;;4998994;28;20170;-89
2023/07/23 10:40:58;;;;;;;3.83;1.90;;;25.50;54.30;;;;;;5092486;23;20256;-92
2023/07/23 10:43:24;;;;;;;2.33;1.83;;;;;;;;;;4977324;28;20637;-91
2023/07/23 10:46:21;;;;;;;3.33;2.40;;;25.40;52.10;;;;;;4988541;28;20184;-91
2023/07/23 10:48:52;;;;;;;3.60;2.50;;;25.00;53.30;;;;;;4985192;28;20256;-88
2023/07/23 10:51:29;;;;;;;2.75;2.00;;;;;;;;;;4971978;28;20203;-89
2023/07/23 10:54:00;;;;;;;7.32;2.20;;;25.20;53.80;;;;;;4985232;28;20205;-88
2023/07/23 10:56:47;;;;;;;2.33;2.00;;;24.90;53.30;;;;;;4969181;28;20209;-92
2023/07/23 10:59:14;;;;;;;2.38;1.90;;;24.70;53.90;;;;;;4967789;28;20178;-91
2023/07/23 11:01:41;;;;;;;2.47;1.70;;;24.70;53.80;;;;;;4966612;28;20226;-89
2023/07/23 11:04:15;;;;;;;2.58;1.92;;;24.90;55.60;;;;;;4984984;28;20206;-84
2023/07/23 11:06:57;;;;;;;3.45;2.03;;;;;;;;;;4979842;28;20181;-86
2023/07/23 11:09:35;;;;;;;2.80;1.95;;;25.40;54.60;;;;;;4981770;28;20249;-90
2023/07/23 11:12:05;;;;;;;2.83;1.83;;;25.60;52.80;;;;;;4977821;28;20197;-90
2023/07/23 11:14:34;;;;;;;4.65;2.05;;;25.70;52.70;;;;;;4977483;28;20190;-89
2023/07/23 11:17:02;;;;;;;2.03;1.73;;;25.90;54.00;;;;;;4961990;28;20183;-92
2023/07/23 11:19:28;;;;;;;3.42;2.10;;;;;;;;;;4960749;28;20182;-91
2023/07/23 11:21:56;;;;;;;2.30;1.88;;;;;;;;;;4963307;28;20226;-91
2023/07/23 11:24:24;;;;;;;2.88;1.70;;;25.50;53.00;;;;;;4963067;28;20169;-85
2023/07/23 11:26:51;;;;;;;2.80;1.80;;;;;;;;;;4960483;28;20186;-91
2023/07/23 11:29:17;;;;;;;2.55;2.08;;;;;;;;;;4961071;28;20652;-90
2023/07/23 11:31:44;;;;;;;3.72;2.28;;;;;;;;;;4979216;28;20192;-90
2023/07/23 11:34:12;;;;;;;2.25;1.88;;;25.30;54.80;;;;;;4996955;28;20744;-93
2023/07/23 11:36:39;;;;;;;5.07;2.25;;;;;;;;;;4981874;28;20242;-93
2023/07/23 11:39:06;;;;;;;2.90;2.00;;;25.60;53.80;;;;;;4982843;28;20178;-91
2023/07/23 11:41:44;;;;;;;2.90;1.85;;;25.60;53.10;;;;;;4982041;28;20703;-91
2023/07/23 11:44:11;;;;;;;2.72;1.95;;;;;;;;;;4997175;28;20169;-91
2023/07/23 11:46:39;;;;;;;3.92;2.13;;;25.60;54.40;;;;;;5001758;28;20204;-93
2023/07/23 11:49:06;;;;;;;5.55;2.20;;;25.60;55.40;;;;;;4997888;28;20181;-89
2023/07/23 11:51:33;;;;;;;2.95;2.03;;;25.80;54.40;;;;;;4979227;28;20186;-91
2023/07/23 11:54:09;;;;;;;2.58;2.10;;;25.70;55.00;;;;;;4997011;28;20208;-91
2023/07/23 11:56:42;;;;;;;2.78;2.00;;;25.60;54.50;;;;;;4981241;28;20285;-93
2023/07/23 11:59:12;;;;;;;2.50;1.83;;;25.40;54.80;;;;;;4978691;28;20269;-90
2023/07/23 12:01:39;;;;;;;5.00;2.50;;;25.30;56.20;;;;;;4978319;28;20181;-88
2023/07/23 12:04:09;;;;;;;2.83;1.80;;;25.40;55.50;;;;;;4995643;28;20189;-93
2023/07/23 12:06:38;;;;;;;3.10;2.10;;;25.60;53.70;;;;;;4996520;28;20197;-90
2023/07/23 12:09:09;;;;;;;2.90;1.85;;;25.60;54.30;;;;;;4980671;28;20259;-93
2023/07/23 12:11:42;;;;;;;3.42;2.30;;;25.90;55.40;;;;;;4980322;28;20182;-91
2023/07/23 12:14:08;;;;;;;2.78;2.08;;;;;;;;;;4978312;28;20209;-92
2023/07/23 12:16:47;;;;;;;2.95;2.33;;;26.60;54.00;;;;;;4978255;28;20186;-91
2023/07/23 12:19:23;;;;;;;3.42;1.90;;;26.60;51.80;;;;;;4977792;28;20192;-91
2023/07/23 12:21:58;;;;;;;2.85;2.08;;;26.60;50.60;;;;;;4978088;28;20706;-91
2023/07/23 12:24:30;;;;;;;2.45;1.90;;;26.50;49.50;;;;;;4979423;28;20196;-89
2023/07/23 12:26:57;;;;;;;2.83;1.80;;;26.60;50.40;;;;;;4995233;28;20661;-90
2023/07/23 12:29:25;;;;;;;2.92;1.90;;;26.60;50.20;;;;;;4996757;28;20233;-92
2023/07/23 12:32:11;;;;;;;8.00;4.18;;;26.90;51.50;;;;;;4962148;28;20276;-89
2023/07/23 12:34:45;;;;;;;3.88;1.88;;;27.70;64.10;;;;;;4979268;28;20268;-87
2023/07/23 12:37:12;;;;;;;1.90;1.67;;;27.00;50.40;;;;;;4982279;28;20182;-90
2023/07/23 12:39:39;;;;;;;2.03;1.80;;;;;;;;;;4996513;28;20218;-90
2023/07/23 12:42:05;;;;;;;3.78;1.63;;;;;;;;;;5018233;28;20246;-91
2023/07/23 12:44:31;;;;;;;3.55;2.05;;;;;;;;;;5001351;28;20180;-91
2023/07/23 12:46:57;;;;;;;2.45;1.67;;;;;;;;;;4997424;28;20261;-90
2023/07/23 12:52:58;;;;;;;2.97;1.75;;;27.30;49.70;;;;;;5014762;28;20654;-87
2023/07/23 12:55:25;;;;;;;2.38;1.80;;;;;;;;;;4998125;28;20200;-89
2023/07/23 12:57:53;;;;;;;3.83;2.00;;;;;;;;;;4989903;28;20527;-89
2023/07/23 13:03:05;;;;;;;2.97;2.08;;;;;;;;;;5010878;28;20259;-87
2023/07/23 13:05:38;;;;;;;6.93;3.40;;;;;;;;;;4996366;28;20197;-88
2023/07/23 13:08:05;;;;;;;2.72;1.88;;;;;;;;;;4994732;28;20189;-86
2023/07/23 13:10:31;;;;;;;1.73;1.63;;;;;;;;;;4994771;28;20205;-88
2023/07/23 13:12:57;;;;;;;1.67;1.50;;;;;;;;;;4977158;28;20299;-88
2023/07/23 13:15:23;;;;;;;2.35;2.00;;;;;;;;;;4977459;28;20190;-88
2023/07/23 13:17:49;;;;;;;4.13;1.70;;;;;;;;;;4994278;28;20174;-89
2023/07/23 13:20:15;;;;;;;2.83;1.75;;;;;;;;;;4964713;28;20194;-89